Time;durP1;ratioP1;P1;durP2;ratioP2;P2;SDS_P1;SDS_P2;PMS_P1;PMS_P2;Temp;Humidity;BMP_temperature;BMP_pressure;BME280_temperature;BME280_humidity;BME280_pressure;Samples;Min_cycle;Max_cycle;Signal;HPM_P1;HPM_P2
2021/12/18 00:02:09;;;;;;;7.28;3.25;;;7.50;99.90;;;;;;5113826;28;20075;-75
2021/12/18 00:04:35;;;;;;;6.78;3.95;;;7.50;99.90;;;;;;5116787;28;20032;-75
2021/12/18 00:07:01;;;;;;;6.85;4.20;;;7.50;99.90;;;;;;5116237;28;20046;-75
2021/12/18 00:09:30;;;;;;;7.05;3.40;;;7.50;99.90;;;;;;5116512;28;20122;-75
2021/12/18 00:11:56;;;;;;;5.68;3.40;;;7.60;99.90;;;;;;5116913;28;20036;-75
2021/12/18 00:14:22;;;;;;;5.10;2.70;;;7.60;99.90;;;;;;5115386;28;20459;-75
2021/12/18 00:16:47;;;;;;;5.82;2.47;;;7.60;99.90;;;;;;5116330;28;20114;-75
2021/12/18 00:19:13;;;;;;;3.13;2.08;;;7.50;99.90;;;;;;5116345;28;20043;-74
2021/12/18 00:21:39;;;;;;;6.45;1.98;;;7.50;99.90;;;;;;5116634;28;20054;-74
2021/12/18 00:24:07;;;;;;;4.63;2.03;;;7.50;99.90;;;;;;5116311;28;20061;-75
2021/12/18 00:26:33;;;;;;;3.33;1.52;;;7.50;99.90;;;;;;5098115;28;20102;-75
2021/12/18 00:28:59;;;;;;;5.07;2.22;;;7.50;99.90;;;;;;5116390;28;20039;-75
2021/12/18 00:31:24;;;;;;;6.05;2.10;;;7.40;99.90;;;;;;5116183;28;20038;-74
2021/12/18 00:33:50;;;;;;;4.18;1.77;;;7.40;99.90;;;;;;5116109;28;20503;-75
2021/12/18 00:36:16;;;;;;;3.03;1.85;;;7.40;99.90;;;;;;5115636;28;20062;-74
2021/12/18 00:38:42;;;;;;;6.53;2.30;;;7.40;99.90;;;;;;5116265;28;20047;-74
2021/12/18 00:44:01;;;;;;;6.50;2.50;;;7.30;99.90;;;;;;5115989;28;20036;-74
2021/12/18 00:46:24;;;;;;;8.15;2.40;;;7.30;99.90;;;;;;5115438;28;20051;-74
2021/12/18 00:48:50;;;;;;;7.07;2.90;;;7.30;99.90;;;;;;5116131;28;20122;-74
2021/12/18 00:51:15;;;;;;;8.35;3.08;;;7.20;99.90;;;;;;5116076;28;20123;-74
2021/12/18 00:53:41;;;;;;;5.93;2.85;;;7.30;99.90;;;;;;5116144;28;20399;-74
2021/12/18 00:56:07;;;;;;;6.93;2.45;;;7.30;99.90;;;;;;5114407;28;20039;-74
2021/12/18 00:58:33;;;;;;;8.40;3.35;;;7.30;99.90;;;;;;5115778;28;20046;-74
2021/12/18 01:00:58;;;;;;;6.72;2.72;;;7.40;99.90;;;;;;5115734;28;20039;-74
2021/12/18 01:03:24;;;;;;;6.93;2.70;;;7.50;99.90;;;;;;5114376;28;20043;-74
2021/12/18 01:05:50;;;;;;;6.78;2.30;;;7.40;99.90;;;;;;5114018;28;20871;-74
2021/12/18 01:08:16;;;;;;;5.57;2.33;;;7.40;99.90;;;;;;5115686;28;20039;-74
2021/12/18 01:13:32;;;;;;;7.35;3.00;;;7.40;99.90;;;;;;5115211;27;20075;-74
2021/12/18 01:16:07;;;;;;;4.90;2.10;;;7.40;99.90;;;;;;5113761;28;20395;-74
2021/12/18 01:24:02;;;;;;;8.57;2.58;;;7.10;99.90;;;;;;5115354;28;20039;-74
2021/12/18 01:26:27;;;;;;;6.88;2.95;;;7.10;99.90;;;;;;5114784;27;20101;-75
2021/12/18 01:28:53;;;;;;;7.05;3.00;;;7.10;99.90;;;;;;5113630;28;20039;-75
2021/12/18 01:31:18;;;;;;;7.15;3.22;;;7.20;99.90;;;;;;5113727;28;20046;-75
2021/12/18 01:33:44;;;;;;;6.85;2.92;;;7.20;99.90;;;;;;5115084;28;20043;-75
2021/12/18 01:36:10;;;;;;;6.35;3.08;;;7.20;99.90;;;;;;5115051;28;20506;-75
2021/12/18 01:38:35;;;;;;;6.47;3.10;;;7.20;99.90;;;;;;5114670;28;20381;-75
2021/12/18 01:41:02;;;;;;;7.35;3.05;;;7.20;99.90;;;;;;5115012;28;20059;-75
2021/12/18 01:51:32;;;;;;;7.75;2.70;;;7.20;99.90;;;;;;5113769;28;20051;-75
2021/12/18 01:53:58;;;;;;;4.45;2.78;;;7.20;99.90;;;;;;5113561;28;20047;-75
2021/12/18 01:56:25;;;;;;;6.35;2.78;;;7.20;99.90;;;;;;5113019;28;20461;-75
2021/12/18 01:58:51;;;;;;;6.38;3.30;;;7.20;99.90;;;;;;5114402;28;20040;-75
2021/12/18 02:01:17;;;;;;;9.98;3.45;;;7.20;99.90;;;;;;5114602;28;20433;-75
2021/12/18 02:03:43;;;;;;;7.47;2.50;;;7.10;99.90;;;;;;5113797;28;20039;-75
2021/12/18 02:06:09;;;;;;;6.57;2.75;;;7.20;99.90;;;;;;5112804;28;20047;-75
2021/12/18 02:08:38;;;;;;;5.30;2.33;;;7.20;99.90;;;;;;5114878;28;20035;-75
2021/12/18 02:11:27;;;;;;;5.75;2.38;;;7.20;99.90;;;;;;5113480;28;20406;-75
2021/12/18 02:22:11;;;;;;;8.85;3.55;;;7.00;99.90;;;;;;5112864;28;20075;-75
2021/12/18 02:24:37;;;;;;;8.75;2.83;;;7.10;99.90;;;;;;5113417;28;20043;-75
2021/12/18 02:27:02;;;;;;;7.05;3.15;;;7.10;99.90;;;;;;5113770;28;20046;-75
2021/12/18 02:29:31;;;;;;;10.75;3.05;;;7.10;99.90;;;;;;5114276;28;20039;-75
2021/12/18 02:31:57;;;;;;;7.55;3.22;;;7.10;99.90;;;;;;5114074;28;20050;-75
2021/12/18 02:34:28;;;;;;;8.02;3.20;;;7.10;99.90;;;;;;5112973;28;20044;-75
2021/12/18 02:36:59;;;;;;;7.35;2.97;;;7.10;99.90;;;;;;5113387;28;20491;-75
2021/12/18 02:42:12;;;;;;;7.20;2.97;;;7.10;99.90;;;;;;5114033;28;20088;-75
2021/12/18 02:44:41;;;;;;;6.15;2.33;;;7.10;99.90;;;;;;5114135;28;20047;-75
2021/12/18 02:47:08;;;;;;;8.68;2.45;;;7.20;99.90;;;;;;5113415;28;20380;-75
2021/12/18 02:49:34;;;;;;;6.45;2.08;;;7.20;99.90;;;;;;5113967;28;20040;-75
2021/12/18 02:52:00;;;;;;;6.20;2.20;;;7.10;99.90;;;;;;5113944;28;20082;-75
2021/12/18 02:54:26;;;;;;;7.57;2.65;;;7.10;99.90;;;;;;5114142;28;20039;-75
2021/12/18 02:56:52;;;;;;;6.88;2.45;;;7.10;99.90;;;;;;5112151;28;20047;-75
2021/12/18 02:59:18;;;;;;;6.10;2.22;;;7.00;99.90;;;;;;5112600;28;20040;-75
2021/12/18 03:01:44;;;;;;;4.88;1.73;;;7.10;99.90;;;;;;5113670;28;20483;-75
2021/12/18 03:04:24;;;;;;;6.63;2.42;;;7.10;99.90;;;;;;5113954;28;20032;-75
2021/12/18 03:06:55;;;;;;;6.55;1.98;;;7.10;99.90;;;;;;5113632;28;20039;-75
2021/12/18 03:23:02;;;;;;;7.03;2.60;;;7.10;99.90;;;;;;5113500;28;20044;-75
2021/12/18 03:25:30;;;;;;;7.85;2.65;;;7.10;99.90;;;;;;5113654;28;20284;-75
2021/12/18 03:28:02;;;;;;;7.38;2.42;;;7.10;99.90;;;;;;5113584;28;20042;-75
2021/12/18 03:30:28;;;;;;;10.05;3.25;;;7.20;99.90;;;;;;5113675;28;20039;-75
2021/12/18 03:32:54;;;;;;;8.60;2.60;;;7.20;99.90;;;;;;5113415;28;20494;-75
2021/12/18 03:35:20;;;;;;;6.47;2.83;;;7.20;99.90;;;;;;5113265;28;20040;-75
2021/12/18 03:37:46;;;;;;;8.30;3.25;;;7.10;99.90;;;;;;5115487;28;20043;-75
2021/12/18 03:40:17;;;;;;;6.88;2.75;;;7.10;99.90;;;;;;5115953;28;20032;-75
2021/12/18 03:42:43;;;;;;;7.47;3.17;;;7.20;99.90;;;;;;5117399;28;20039;-75
2021/12/18 03:45:10;;;;;;;7.28;2.80;;;7.10;99.90;;;;;;5117297;28;20110;-75
2021/12/18 03:47:36;;;;;;;9.75;3.80;;;7.10;99.90;;;;;;5117050;28;20051;-75
2021/12/18 03:50:03;;;;;;;7.82;3.30;;;7.20;99.90;;;;;;5117276;28;20044;-75
2021/12/18 03:52:29;;;;;;;9.68;3.53;;;7.10;99.90;;;;;;5116960;28;20036;-75
2021/12/18 03:54:55;;;;;;;8.48;3.35;;;7.10;99.90;;;;;;5117210;28;20036;-75
2021/12/18 03:57:20;;;;;;;7.07;2.50;;;7.10;99.90;;;;;;5116645;28;20050;-75
2021/12/18 03:59:46;;;;;;;5.10;2.33;;;7.20;99.90;;;;;;5116833;28;20040;-75
2021/12/18 04:02:12;;;;;;;9.15;2.85;;;7.10;99.90;;;;;;5116792;28;20079;-75
2021/12/18 04:04:37;;;;;;;5.80;2.42;;;7.20;99.90;;;;;;5115889;28;20048;-75
2021/12/18 04:07:04;;;;;;;7.32;2.67;;;7.20;99.90;;;;;;5116646;28;20111;-75
2021/12/18 04:09:30;;;;;;;6.35;2.28;;;7.10;99.90;;;;;;5116906;28;20050;-75
2021/12/18 04:11:56;;;;;;;6.15;2.60;;;7.10;99.90;;;;;;5117170;28;20044;-75
2021/12/18 04:14:22;;;;;;;3.35;1.88;;;7.10;99.90;;;;;;5116518;28;20035;-75
2021/12/18 04:16:48;;;;;;;5.32;2.22;;;7.10;99.90;;;;;;5114904;28;20069;-75
2021/12/18 04:19:13;;;;;;;5.07;2.20;;;7.10;99.90;;;;;;5117165;28;20043;-75
2021/12/18 04:21:39;;;;;;;3.97;2.08;;;7.10;99.90;;;;;;5116718;28;20035;-75
2021/12/18 04:24:06;;;;;;;3.88;2.08;;;7.20;99.90;;;;;;5116585;28;20076;-75
2021/12/18 04:26:33;;;;;;;4.85;2.00;;;7.20;99.90;;;;;;5114815;28;20078;-75
2021/12/18 04:29:01;;;;;;;4.05;2.00;;;7.10;99.90;;;;;;5115428;28;20047;-75
2021/12/18 04:31:27;;;;;;;3.97;2.10;;;7.10;99.90;;;;;;5116426;28;20050;-75
2021/12/18 04:33:53;;;;;;;7.18;3.00;;;7.20;99.90;;;;;;5115172;28;20036;-75
2021/12/18 04:36:19;;;;;;;5.15;2.83;;;7.20;99.90;;;;;;5115907;28;20038;-75
2021/12/18 04:38:45;;;;;;;7.30;2.90;;;7.20;99.90;;;;;;5116185;28;20075;-75
2021/12/18 04:41:11;;;;;;;7.03;2.78;;;7.20;99.90;;;;;;5116321;28;20138;-75
2021/12/18 04:43:37;;;;;;;5.22;2.70;;;7.20;99.90;;;;;;5116321;28;20457;-75
2021/12/18 04:46:03;;;;;;;8.27;2.83;;;7.20;99.90;;;;;;5114377;28;20044;-75
2021/12/18 04:48:29;;;;;;;6.18;2.80;;;7.20;99.90;;;;;;5115430;28;20097;-75
2021/12/18 04:50:55;;;;;;;9.57;3.25;;;7.30;99.90;;;;;;5115704;28;20036;-75
2021/12/18 04:53:20;;;;;;;7.63;2.58;;;7.30;99.90;;;;;;5097658;28;20042;-75
2021/12/18 04:55:46;;;;;;;6.35;2.90;;;7.30;99.90;;;;;;5115511;28;20479;-75
2021/12/18 04:58:12;;;;;;;6.72;2.13;;;7.20;99.90;;;;;;5115428;28;20114;-75
2021/12/18 05:00:39;;;;;;;6.15;2.45;;;7.20;99.90;;;;;;5114574;28;20079;-75
2021/12/18 05:03:07;;;;;;;6.80;2.70;;;7.20;99.90;;;;;;5116497;28;20044;-75
2021/12/18 05:05:34;;;;;;;4.38;2.40;;;7.20;99.90;;;;;;5114563;28;20482;-75
2021/12/18 05:08:01;;;;;;;5.43;2.20;;;7.30;99.90;;;;;;5115595;28;20043;-75
2021/12/18 05:10:26;;;;;;;5.05;2.47;;;7.30;99.90;;;;;;5095682;28;20047;-75
2021/12/18 05:12:52;;;;;;;6.00;2.90;;;7.30;99.90;;;;;;5093857;28;20396;-75
2021/12/18 05:15:17;;;;;;;4.07;1.85;;;7.30;99.90;;;;;;5095591;28;20032;-75
2021/12/18 05:17:43;;;;;;;4.95;2.00;;;7.30;99.90;;;;;;5094904;28;20032;-74
2021/12/18 05:20:09;;;;;;;4.35;1.80;;;7.30;99.90;;;;;;5095436;28;20491;-75
2021/12/18 05:22:34;;;;;;;3.95;1.85;;;7.30;99.90;;;;;;5095304;28;20029;-75
2021/12/18 05:25:00;;;;;;;6.35;2.60;;;7.30;99.90;;;;;;5095116;28;20076;-75
2021/12/18 05:27:26;;;;;;;5.90;2.50;;;7.30;99.90;;;;;;5094423;28;20040;-75
2021/12/18 05:29:51;;;;;;;4.95;2.15;;;7.30;99.90;;;;;;5094612;28;20035;-75
2021/12/18 05:32:20;;;;;;;6.93;3.15;;;7.30;99.90;;;;;;5093501;28;20123;-75
2021/12/18 05:34:45;;;;;;;4.68;2.33;;;7.30;99.90;;;;;;5094832;28;20120;-75
2021/12/18 05:37:19;;;;;;;4.20;2.17;;;7.30;99.90;;;;;;5094227;28;20466;-75
2021/12/18 05:39:47;;;;;;;6.60;2.63;;;7.30;99.90;;;;;;5093707;28;20044;-75
2021/12/18 05:42:13;;;;;;;6.82;2.70;;;7.40;99.90;;;;;;5093414;28;20036;-75
2021/12/18 05:44:39;;;;;;;7.68;3.30;;;7.40;99.90;;;;;;5094593;28;20047;-75
2021/12/18 05:47:05;;;;;;;7.40;3.28;;;7.30;99.90;;;;;;5093030;28;20039;-74
2021/12/18 05:49:31;;;;;;;9.95;3.67;;;7.40;99.90;;;;;;5094639;28;20047;-75
2021/12/18 05:51:56;;;;;;;6.95;3.28;;;7.40;99.90;;;;;;5094750;28;20463;-75
2021/12/18 05:54:22;;;;;;;8.75;3.45;;;7.40;99.90;;;;;;5093338;28;20082;-75
2021/12/18 05:56:48;;;;;;;7.45;3.78;;;7.40;99.90;;;;;;5094169;28;20044;-75
2021/12/18 05:59:13;;;;;;;8.70;3.50;;;7.50;99.90;;;;;;5093984;28;20040;-75
2021/12/18 06:01:39;;;;;;;8.13;4.43;;;7.40;99.90;;;;;;5094076;28;20118;-75
2021/12/18 06:04:04;;;;;;;10.25;4.45;;;7.50;99.90;;;;;;5094253;28;20040;-75
2021/12/18 06:06:31;;;;;;;9.27;4.30;;;7.50;99.90;;;;;;5092839;28;20124;-75
2021/12/18 06:08:57;;;;;;;11.38;4.88;;;7.50;99.90;;;;;;5094055;28;20048;-73
2021/12/18 06:11:26;;;;;;;10.73;5.38;;;7.50;99.90;;;;;;5092928;28;20048;-75
2021/12/18 06:13:52;;;;;;;9.75;4.97;;;7.50;99.90;;;;;;5093864;28;20122;-75
2021/12/18 06:16:20;;;;;;;11.02;5.05;;;7.50;99.90;;;;;;5093911;28;20036;-75
2021/12/18 06:18:49;;;;;;;13.45;6.22;;;7.50;99.90;;;;;;5093279;28;20068;-75
2021/12/18 06:21:16;;;;;;;12.90;5.97;;;7.50;99.90;;;;;;5093732;28;20488;-75
2021/12/18 06:23:42;;;;;;;14.95;6.30;;;7.60;99.90;;;;;;5092631;28;20399;-76
2021/12/18 06:26:08;;;;;;;11.05;5.15;;;7.60;99.90;;;;;;5093877;28;20044;-76
2021/12/18 06:28:33;;;;;;;17.90;6.50;;;7.60;99.90;;;;;;5093764;28;20036;-76
2021/12/18 06:31:00;;;;;;;17.35;6.35;;;7.60;99.90;;;;;;5093873;28;20032;-76
2021/12/18 06:33:26;;;;;;;16.75;6.47;;;7.70;99.90;;;;;;5093596;28;20105;-75
2021/12/18 06:35:52;;;;;;;19.27;6.57;;;7.60;99.90;;;;;;5093189;28;20040;-75
2021/12/18 06:38:18;;;;;;;16.15;6.70;;;7.60;99.90;;;;;;5092479;28;20044;-75
2021/12/18 06:40:43;;;;;;;21.77;7.03;;;7.70;99.90;;;;;;5093825;28;20036;-75
2021/12/18 06:43:09;;;;;;;13.80;5.80;;;7.70;99.90;;;;;;5093573;28;20044;-74
2021/12/18 06:45:35;;;;;;;14.60;5.97;;;7.70;99.90;;;;;;5093655;28;20054;-74
2021/12/18 06:48:00;;;;;;;17.42;7.18;;;7.80;99.90;;;;;;5093524;28;20036;-74
2021/12/18 06:50:26;;;;;;;16.92;6.00;;;7.80;99.90;;;;;;5093510;28;20112;-74
2021/12/18 06:52:52;;;;;;;20.23;7.20;;;7.80;99.90;;;;;;5093360;28;20081;-74
2021/12/18 06:55:18;;;;;;;21.98;6.93;;;7.80;99.90;;;;;;5093472;28;20036;-74
2021/12/18 06:57:44;;;;;;;17.92;6.53;;;7.80;99.90;;;;;;5093258;28;20360;-74
2021/12/18 07:00:13;;;;;;;12.82;6.50;;;7.80;99.90;;;;;;5093495;28;20035;-74
2021/12/18 07:02:38;;;;;;;19.17;6.95;;;7.80;99.90;;;;;;5075811;28;20082;-74
2021/12/18 07:05:05;;;;;;;20.58;6.68;;;7.90;99.90;;;;;;5093235;28;20458;-74
2021/12/18 07:07:31;;;;;;;21.17;7.55;;;7.90;99.90;;;;;;5092851;28;20040;-74
2021/12/18 07:09:56;;;;;;;13.45;6.63;;;7.90;99.90;;;;;;5094126;28;20036;-74
2021/12/18 07:12:22;;;;;;;20.90;7.75;;;8.00;99.90;;;;;;5097037;28;20433;-74
2021/12/18 07:14:47;;;;;;;14.27;6.40;;;7.90;99.90;;;;;;5097696;28;20063;-74
2021/12/18 07:17:13;;;;;;;15.25;6.18;;;8.00;99.90;;;;;;5097199;28;20070;-74
2021/12/18 07:19:39;;;;;;;15.40;6.32;;;8.00;99.90;;;;;;5097474;28;20051;-74
2021/12/18 07:22:05;;;;;;;14.45;6.65;;;8.00;99.90;;;;;;5097346;28;20071;-74
2021/12/18 07:24:31;;;;;;;19.25;6.22;;;8.00;99.90;;;;;;5096943;28;20133;-74
2021/12/18 07:26:57;;;;;;;21.17;6.25;;;8.10;99.90;;;;;;5096721;28;20106;-74
2021/12/18 07:29:22;;;;;;;13.73;6.32;;;8.00;99.90;;;;;;5097012;28;20040;-74
2021/12/18 07:31:49;;;;;;;18.83;6.70;;;8.00;99.90;;;;;;5096062;28;20054;-74
2021/12/18 07:34:15;;;;;;;16.25;6.15;;;8.10;99.90;;;;;;5097169;28;20125;-74
2021/12/18 07:36:40;;;;;;;18.67;6.95;;;8.10;99.90;;;;;;5096663;28;20086;-74
2021/12/18 07:39:06;;;;;;;16.27;6.00;;;8.10;99.90;;;;;;5096190;28;20044;-74
2021/12/18 07:41:32;;;;;;;20.58;6.40;;;8.10;99.90;;;;;;5096867;28;20047;-74
2021/12/18 07:43:58;;;;;;;15.35;6.40;;;8.10;99.90;;;;;;5095858;28;20085;-74
2021/12/18 07:46:23;;;;;;;14.73;6.20;;;8.10;99.90;;;;;;5096679;28;20484;-74
2021/12/18 07:48:49;;;;;;;17.35;6.68;;;8.10;99.90;;;;;;5097089;28;20388;-74
2021/12/18 07:51:15;;;;;;;14.07;6.38;;;8.20;99.90;;;;;;5095617;28;20084;-74
2021/12/18 07:53:41;;;;;;;13.43;6.07;;;8.10;99.90;;;;;;5095274;28;20050;-74
2021/12/18 07:56:09;;;;;;;14.82;6.15;;;8.20;99.90;;;;;;5096221;28;20032;-74
2021/12/18 07:58:35;;;;;;;18.75;6.75;;;8.20;99.90;;;;;;5095821;28;20040;-74
2021/12/18 08:01:02;;;;;;;18.02;6.22;;;8.20;99.90;;;;;;5096755;28;20085;-74
2021/12/18 08:03:28;;;;;;;22.15;6.18;;;8.20;99.90;;;;;;5096552;28;20044;-74
2021/12/18 08:05:53;;;;;;;11.23;5.45;;;8.20;99.90;;;;;;5096015;28;20089;-74
2021/12/18 08:08:19;;;;;;;14.88;7.03;;;8.20;99.90;;;;;;5096312;28;20571;-74
2021/12/18 08:10:45;;;;;;;13.57;5.78;;;8.20;99.90;;;;;;5100097;28;20028;-74
2021/12/18 08:13:10;;;;;;;15.73;6.03;;;8.20;99.90;;;;;;5115637;28;20509;-74
2021/12/18 08:15:36;;;;;;;20.33;6.45;;;8.30;99.90;;;;;;5116285;28;20365;-74
2021/12/18 08:18:06;;;;;;;16.75;6.50;;;8.30;99.90;;;;;;5116642;28;20114;-74
2021/12/18 08:20:32;;;;;;;18.17;6.47;;;8.30;99.90;;;;;;5116436;28;20513;-74
2021/12/18 08:22:58;;;;;;;23.33;8.25;;;8.30;99.90;;;;;;5115442;28;20044;-74
2021/12/18 08:25:26;;;;;;;15.32;5.63;;;8.30;99.90;;;;;;5116328;28;20122;-74
2021/12/18 08:27:51;;;;;;;12.32;5.15;;;8.30;99.90;;;;;;5114940;28;20079;-74
2021/12/18 08:30:17;;;;;;;15.52;4.85;;;8.30;99.90;;;;;;5116696;28;20439;-74
2021/12/18 08:32:43;;;;;;;14.52;5.68;;;8.30;99.90;;;;;;5115116;28;20042;-74
2021/12/18 08:35:09;;;;;;;15.98;4.22;;;8.30;99.90;;;;;;5116249;28;20032;-74
2021/12/18 08:37:35;;;;;;;11.88;3.58;;;8.30;99.90;;;;;;5114276;28;20093;-74
2021/12/18 08:40:01;;;;;;;13.10;4.28;;;8.30;99.90;;;;;;5116002;28;20066;-74
2021/12/18 08:42:27;;;;;;;14.43;3.85;;;8.30;99.90;;;;;;5116013;28;20114;-74
2021/12/18 08:44:52;;;;;;;14.43;4.70;;;8.40;99.90;;;;;;5115081;28;20042;-74
2021/12/18 08:47:19;;;;;;;12.30;4.25;;;8.40;99.90;;;;;;5115540;28;20058;-74
2021/12/18 08:49:45;;;;;;;14.25;4.15;;;8.40;99.90;;;;;;5115900;28;20118;-74
2021/12/18 08:52:10;;;;;;;9.57;3.90;;;8.40;99.90;;;;;;5115804;28;20082;-74
2021/12/18 08:54:36;;;;;;;14.07;4.57;;;8.30;99.90;;;;;;5114663;28;20063;-73
2021/12/18 08:57:02;;;;;;;15.45;4.32;;;8.30;99.90;;;;;;5115573;28;20067;-73
2021/12/18 08:59:27;;;;;;;15.63;3.63;;;8.40;99.90;;;;;;5115731;28;20098;-73
2021/12/18 09:01:53;;;;;;;15.82;4.15;;;8.40;99.90;;;;;;5114302;28;20048;-74
2021/12/18 09:04:18;;;;;;;15.43;5.22;;;8.40;99.90;;;;;;5109445;28;20070;-74
2021/12/18 09:06:44;;;;;;;14.73;4.00;;;8.40;99.90;;;;;;5103774;28;20087;-74
2021/12/18 09:09:10;;;;;;;18.73;5.07;;;8.40;99.90;;;;;;5095338;28;20040;-74
2021/12/18 09:11:36;;;;;;;14.60;4.30;;;8.40;99.90;;;;;;5095483;28;20040;-74
2021/12/18 09:14:02;;;;;;;14.85;4.57;;;8.50;99.90;;;;;;5095186;28;20521;-74
2021/12/18 09:16:30;;;;;;;12.40;4.55;;;8.50;99.90;;;;;;5094783;28;20054;-73
2021/12/18 09:18:56;;;;;;;7.70;4.05;;;8.50;99.90;;;;;;5094132;28;20480;-74
2021/12/18 09:21:22;;;;;;;9.02;4.45;;;8.40;99.90;;;;;;5095030;28;20121;-74
2021/12/18 09:23:47;;;;;;;12.60;4.10;;;8.50;99.90;;;;;;5093559;28;20048;-72
2021/12/18 09:26:13;;;;;;;13.23;4.05;;;8.50;99.90;;;;;;5093594;28;20036;-74
2021/12/18 09:28:39;;;;;;;11.95;3.97;;;8.50;99.90;;;;;;5095374;28;20460;-72
2021/12/18 09:31:04;;;;;;;14.50;3.80;;;8.50;99.90;;;;;;5093850;28;20089;-74
2021/12/18 09:33:30;;;;;;;11.55;3.72;;;8.50;99.90;;;;;;5095017;28;20447;-74
2021/12/18 09:35:56;;;;;;;13.27;3.78;;;8.50;99.90;;;;;;5094570;28;20040;-73
2021/12/18 09:38:21;;;;;;;11.05;3.60;;;8.50;99.90;;;;;;5094499;28;20044;-73
2021/12/18 09:40:47;;;;;;;11.88;3.92;;;8.50;99.90;;;;;;5076648;28;20058;-74
2021/12/18 09:43:12;;;;;;;14.30;4.18;;;8.60;99.90;;;;;;5098531;28;20514;-74
2021/12/18 09:45:38;;;;;;;12.88;3.78;;;8.60;99.90;;;;;;5114947;28;20080;-75
2021/12/18 09:48:05;;;;;;;14.55;3.22;;;8.60;99.90;;;;;;5114923;28;20149;-71
2021/12/18 09:50:35;;;;;;;10.13;3.45;;;8.60;99.90;;;;;;5114891;28;20088;-74
2021/12/18 09:53:00;;;;;;;10.70;3.20;;;8.60;99.90;;;;;;5114698;28;20084;-74
2021/12/18 09:55:26;;;;;;;8.07;3.28;;;8.60;99.90;;;;;;5114388;27;20126;-74
2021/12/18 09:57:52;;;;;;;14.15;4.10;;;8.70;99.90;;;;;;5112775;28;20125;-74
2021/12/18 10:00:22;;;;;;;15.68;3.70;;;8.70;99.90;;;;;;5113383;28;20035;-74
2021/12/18 10:02:48;;;;;;;9.75;3.08;;;8.70;99.90;;;;;;5114735;28;20036;-74
2021/12/18 10:05:26;;;;;;;14.63;3.88;;;8.70;99.90;;;;;;5114746;28;20039;-74
2021/12/18 10:08:14;;;;;;;15.02;4.93;;;8.80;99.90;;;;;;5114390;28;20116;-74
2021/12/18 10:10:58;;;;;;;15.77;4.68;;;8.70;99.90;;;;;;5114989;28;20039;-74
2021/12/18 10:13:24;;;;;;;15.50;4.90;;;8.70;99.90;;;;;;5113072;28;20789;-74
2021/12/18 10:16:08;;;;;;;11.85;5.38;;;8.70;99.90;;;;;;5112677;28;20043;-75
2021/12/18 10:18:34;;;;;;;19.55;4.75;;;8.70;99.90;;;;;;5114618;28;20039;-74
2021/12/18 10:21:11;;;;;;;11.23;4.53;;;8.80;99.90;;;;;;5114238;28;20043;-74
2021/12/18 10:23:37;;;;;;;13.90;5.50;;;8.80;99.90;;;;;;5113017;28;20137;-74
2021/12/18 10:26:03;;;;;;;12.80;4.47;;;8.80;99.90;;;;;;5114077;28;20047;-74
2021/12/18 10:28:45;;;;;;;10.70;4.80;;;8.80;99.90;;;;;;5112909;28;20487;-75
2021/12/18 10:31:11;;;;;;;9.82;3.83;;;8.80;99.90;;;;;;5113068;28;20454;-74
2021/12/18 10:33:37;;;;;;;11.80;4.18;;;8.80;99.90;;;;;;5114224;28;20067;-75
2021/12/18 10:36:03;;;;;;;9.52;4.75;;;8.80;99.90;;;;;;5114155;28;20104;-74
2021/12/18 10:38:50;;;;;;;13.38;4.50;;;8.80;99.90;;;;;;5113740;28;20402;-74
2021/12/18 10:41:20;;;;;;;8.45;4.68;;;8.90;99.90;;;;;;5114250;28;20504;-73
2021/12/18 10:44:09;;;;;;;10.88;4.15;;;8.80;99.90;;;;;;5113857;28;20032;-74
2021/12/18 10:46:41;;;;;;;11.30;5.13;;;8.80;99.90;;;;;;5112394;28;20480;-75
2021/12/18 10:49:09;;;;;;;14.10;4.22;;;8.90;99.90;;;;;;5114053;28;20522;-74
2021/12/18 10:51:37;;;;;;;11.48;4.22;;;8.90;99.90;;;;;;5112794;28;20542;-74
2021/12/18 10:54:12;;;;;;;10.68;4.63;;;8.90;99.90;;;;;;5113737;28;20372;-74
2021/12/18 10:56:40;;;;;;;10.88;4.80;;;8.90;99.90;;;;;;5113720;28;20566;-74
2021/12/18 10:59:23;;;;;;;10.90;4.72;;;8.90;99.90;;;;;;5112573;28;20051;-74
2021/12/18 11:01:53;;;;;;;11.45;3.17;;;9.00;99.90;;;;;;5114018;28;20040;-74
2021/12/18 11:04:45;;;;;;;10.02;3.95;;;8.90;99.90;;;;;;5113636;28;20036;-74
2021/12/18 11:07:30;;;;;;;9.70;3.65;;;8.90;99.90;;;;;;5111092;28;20376;-75
2021/12/18 11:10:18;;;;;;;11.23;4.57;;;9.00;99.90;;;;;;5113716;28;20472;-74
2021/12/18 11:15:29;;;;;;;13.25;4.05;;;9.00;99.90;;;;;;5113632;28;20043;-75
2021/12/18 11:17:55;;;;;;;16.58;4.90;;;9.00;99.90;;;;;;5113406;28;20035;-74
2021/12/18 11:20:20;;;;;;;10.88;4.72;;;9.00;99.90;;;;;;5113920;28;20096;-74
2021/12/18 11:22:49;;;;;;;11.05;4.18;;;9.00;99.90;;;;;;5113737;28;20525;-74
2021/12/18 11:25:15;;;;;;;10.20;3.90;;;9.00;99.90;;;;;;5112221;28;20395;-73
2021/12/18 11:27:41;;;;;;;10.27;5.07;;;9.00;99.90;;;;;;5113125;28;20039;-74
2021/12/18 11:30:12;;;;;;;13.82;5.00;;;9.00;99.90;;;;;;5095320;28;20044;-74
2021/12/18 11:32:41;;;;;;;7.88;4.10;;;9.00;99.90;;;;;;5112699;28;20039;-74
2021/12/18 11:35:10;;;;;;;7.13;3.90;;;9.00;99.90;;;;;;5113525;28;20040;-74
2021/12/18 11:37:43;;;;;;;9.75;4.35;;;9.00;99.90;;;;;;5113013;28;20127;-74
2021/12/18 11:40:11;;;;;;;10.43;3.80;;;9.00;99.90;;;;;;5112248;28;20047;-74
2021/12/18 11:42:37;;;;;;;15.90;4.95;;;9.00;99.90;;;;;;5112041;28;20536;-74
2021/12/18 11:45:05;;;;;;;9.50;4.13;;;9.00;99.90;;;;;;5111939;28;20044;-74
2021/12/18 11:47:36;;;;;;;8.90;4.22;;;9.10;99.90;;;;;;5113160;28;20047;-74
2021/12/18 11:50:33;;;;;;;8.75;4.25;;;9.00;99.90;;;;;;5113184;28;20047;-74
2021/12/18 11:53:01;;;;;;;9.25;3.60;;;9.10;99.90;;;;;;5113311;28;20036;-74
2021/12/18 11:55:36;;;;;;;5.53;3.15;;;9.10;99.90;;;;;;5113176;28;20404;-74
2021/12/18 11:58:11;;;;;;;15.48;3.72;;;9.10;99.90;;;;;;5114855;28;20479;-74
2021/12/18 12:00:44;;;;;;;7.82;3.20;;;9.10;99.90;;;;;;5117399;28;20050;-74
2021/12/18 12:03:26;;;;;;;8.20;3.88;;;9.10;99.90;;;;;;5117229;28;20047;-74
2021/12/18 12:05:52;;;;;;;8.77;3.78;;;9.10;99.90;;;;;;5116853;28;20051;-74
2021/12/18 12:08:41;;;;;;;6.97;2.97;;;9.10;99.90;;;;;;5116736;28;20039;-74
2021/12/18 12:11:15;;;;;;;16.42;4.40;;;9.20;99.90;;;;;;5116038;28;20078;-74
2021/12/18 12:13:59;;;;;;;9.93;3.85;;;9.20;99.90;;;;;;5116677;28;20115;-74
2021/12/18 12:16:42;;;;;;;14.27;4.10;;;9.10;99.90;;;;;;5116787;28;20051;-73
2021/12/18 12:19:10;;;;;;;11.38;3.40;;;9.20;99.90;;;;;;5116772;27;20048;-72
2021/12/18 12:21:48;;;;;;;10.35;3.92;;;9.10;99.90;;;;;;5116621;28;20036;-73
2021/12/18 12:24:15;;;;;;;15.73;3.20;;;9.20;99.90;;;;;;5116827;28;20046;-73
2021/12/18 12:26:41;;;;;;;9.57;4.32;;;9.20;99.90;;;;;;5115060;28;20489;-73
2021/12/18 12:29:08;;;;;;;13.48;3.35;;;9.10;99.90;;;;;;5116766;28;20421;-73
2021/12/18 12:31:35;;;;;;;11.88;2.80;;;9.20;99.90;;;;;;5115400;28;20089;-73
2021/12/18 12:34:19;;;;;;;10.40;3.60;;;9.20;99.90;;;;;;5116704;28;20032;-73
2021/12/18 12:36:45;;;;;;;9.98;3.70;;;9.30;99.90;;;;;;5115631;28;20039;-73
2021/12/18 12:39:14;;;;;;;10.13;3.67;;;9.20;99.90;;;;;;5114778;28;20069;-73
2021/12/18 12:41:52;;;;;;;12.57;4.00;;;9.20;99.90;;;;;;5116316;28;20371;-73
2021/12/18 12:44:26;;;;;;;7.55;3.42;;;9.20;99.90;;;;;;5116381;28;20043;-73
2021/12/18 12:47:26;;;;;;;12.20;3.53;;;9.20;99.90;;;;;;5115724;27;20380;-73
2021/12/18 12:50:11;;;;;;;13.20;3.67;;;9.20;99.90;;;;;;5093357;28;20353;-73
2021/12/18 12:52:53;;;;;;;6.68;3.08;;;9.20;99.90;;;;;;5114708;28;20096;-73
2021/12/18 12:55:21;;;;;;;9.35;3.60;;;9.20;99.90;;;;;;5115823;28;20035;-73
2021/12/18 12:58:20;;;;;;;7.22;3.08;;;9.20;99.90;;;;;;5115665;28;20035;-73
2021/12/18 13:00:49;;;;;;;12.02;4.03;;;9.20;99.90;;;;;;5112644;28;20058;-73
2021/12/18 13:03:18;;;;;;;7.78;3.72;;;9.20;99.90;;;;;;5114835;28;20529;-73
2021/12/18 13:05:55;;;;;;;14.65;3.67;;;9.20;99.90;;;;;;5114381;28;20130;-73
2021/12/18 13:08:21;;;;;;;11.23;3.78;;;9.30;99.90;;;;;;5115203;28;20098;-73
2021/12/18 13:10:50;;;;;;;13.88;3.50;;;9.30;99.90;;;;;;5115366;28;20075;-73
2021/12/18 13:13:18;;;;;;;18.05;4.28;;;9.20;99.90;;;;;;5115658;28;20031;-73
2021/12/18 13:16:13;;;;;;;13.23;3.65;;;9.20;99.90;;;;;;5115232;28;20044;-73
2021/12/18 13:18:41;;;;;;;8.75;3.60;;;9.30;99.90;;;;;;5113706;28;20565;-72
2021/12/18 13:21:14;;;;;;;12.88;4.00;;;9.30;99.90;;;;;;5114140;28;20458;-73
2021/12/18 13:24:04;;;;;;;10.57;3.55;;;9.30;99.90;;;;;;5115434;28;20039;-73
2021/12/18 13:26:39;;;;;;;11.48;3.53;;;9.30;99.90;;;;;;5115205;28;20037;-74
2021/12/18 13:29:18;;;;;;;12.57;3.85;;;9.20;99.90;;;;;;5115331;27;20053;-74
2021/12/18 13:31:50;;;;;;;10.70;3.55;;;9.20;99.90;;;;;;5115203;28;20036;-73
2021/12/18 13:34:22;;;;;;;9.07;3.10;;;9.30;99.90;;;;;;5115336;28;20383;-74
2021/12/18 13:36:57;;;;;;;11.10;4.93;;;9.20;99.90;;;;;;5115217;28;20485;-74
2021/12/18 13:39:32;;;;;;;9.38;3.50;;;9.20;99.90;;;;;;5115438;28;20043;-74
2021/12/18 13:42:12;;;;;;;15.25;3.83;;;9.30;99.90;;;;;;5114906;28;20480;-74
2021/12/18 13:44:41;;;;;;;16.10;4.63;;;9.20;99.90;;;;;;5114989;28;20038;-73
2021/12/18 13:47:30;;;;;;;14.35;3.72;;;9.20;99.90;;;;;;5113217;28;20381;-70